Time;durP1;ratioP1;P1;durP2;ratioP2;P2;SDS_P1;SDS_P2;PMS_P1;PMS_P2;Temp;Humidity;BMP_temperature;BMP_pressure;BME280_temperature;BME280_humidity;BME280_pressure;Samples;Min_cycle;Max_cycle;Signal;HPM_P1;HPM_P2
2022/04/17 00:01:06;;;;;;;20.10;13.88;;;;;;;5.56;56.08;102668.50;5050774;28;20053;-83
2022/04/17 00:03:33;;;;;;;23.88;12.13;;;;;;;5.53;56.15;102671.88;5030033;28;20063;-81
2022/04/17 00:05:59;;;;;;;16.70;12.05;;;;;;;5.50;56.02;102674.34;5026759;28;20045;-82
2022/04/17 00:08:27;;;;;;;16.50;12.07;;;;;;;5.47;56.37;102659.50;5029547;28;20076;-83
2022/04/17 00:10:53;;;;;;;16.02;11.40;;;;;;;5.47;56.61;102663.78;5043881;28;20052;-81
2022/04/17 00:13:21;;;;;;;16.42;10.43;;;;;;;5.44;56.70;102667.13;5044079;28;20389;-82
2022/04/17 00:15:47;;;;;;;16.17;10.77;;;;;;;5.43;56.93;102670.56;5029629;28;20136;-82
2022/04/17 00:18:14;;;;;;;13.07;8.98;;;;;;;5.40;57.16;102673.03;5045379;28;20332;-80
2022/04/17 00:20:44;;;;;;;13.90;9.52;;;;;;;5.37;57.35;102664.19;5045857;28;20037;-80
2022/04/17 00:23:11;;;;;;;14.00;8.80;;;;;;;5.34;57.51;102659.75;5047060;28;20047;-82
2022/04/17 00:25:37;;;;;;;13.13;9.70;;;;;;;5.32;57.38;102668.28;5025982;28;20052;-82
2022/04/17 00:28:05;;;;;;;18.92;12.15;;;;;;;5.29;57.45;102661.25;5030709;28;20045;-83
2022/04/17 00:30:32;;;;;;;14.55;9.45;;;;;;;5.25;57.87;102659.34;5028791;28;20593;-81
2022/04/17 00:32:58;;;;;;;11.10;9.00;;;;;;;5.21;57.80;102660.03;5023011;28;20072;-83
2022/04/17 00:35:25;;;;;;;10.55;8.38;;;;;;;5.18;57.79;102654.72;5040972;28;20051;-79
2022/04/17 00:37:51;;;;;;;11.77;8.35;;;;;;;5.13;57.68;102647.56;5030563;28;20630;-79
2022/04/17 00:40:18;;;;;;;17.45;10.45;;;;;;;5.12;58.30;102644.91;5028226;28;20078;-80
2022/04/17 00:42:44;;;;;;;16.33;8.57;;;;;;;5.11;58.46;102636.25;5044384;28;20171;-81
2022/04/17 00:45:11;;;;;;;17.20;9.75;;;;;;;5.13;58.51;102639.78;5032086;28;20381;-82
2022/04/17 00:47:37;;;;;;;15.30;7.93;;;;;;;5.14;58.25;102635.50;5044261;28;20677;-82
2022/04/17 00:50:07;;;;;;;10.70;7.68;;;;;;;5.08;57.93;102628.31;5044272;28;20041;-83
2022/04/17 00:52:34;;;;;;;14.00;8.13;;;;;;;5.04;58.65;102630.72;5044098;28;20513;-83
2022/04/17 00:55:04;;;;;;;13.38;8.77;;;;;;;5.00;58.76;102627.06;5042516;28;20041;-80
2022/04/17 00:57:31;;;;;;;17.02;8.90;;;;;;;4.95;58.54;102626.88;5023115;28;20056;-80
2022/04/17 00:59:58;;;;;;;12.20;7.78;;;;;;;4.92;58.89;102628.44;5045555;28;20052;-80
2022/04/17 01:02:25;;;;;;;13.10;8.55;;;;;;;4.88;59.30;102623.94;5044255;28;20222;-84
2022/04/17 01:04:51;;;;;;;10.93;7.45;;;;;;;4.86;59.14;102630.75;5040558;28;20049;-81
2022/04/17 01:07:23;;;;;;;11.68;7.32;;;;;;;4.81;58.92;102630.53;5045007;28;20052;-83
2022/04/17 01:09:51;;;;;;;13.90;8.73;;;;;;;4.75;59.21;102625.94;5029716;28;20037;-79
2022/04/17 01:12:19;;;;;;;15.23;8.35;;;;;;;4.74;59.21;102631.06;5044992;28;20187;-81
2022/04/17 01:14:45;;;;;;;16.83;8.63;;;;;;;4.69;59.57;102633.41;5027188;28;20053;-83
2022/04/17 01:17:13;;;;;;;12.48;8.35;;;;;;;4.69;59.80;102640.34;5029941;28;20406;-83
2022/04/17 01:19:40;;;;;;;9.95;7.28;;;;;;;4.67;59.27;102631.56;5025983;28;20038;-82
2022/04/17 01:22:12;;;;;;;11.07;7.35;;;;;;;4.66;59.50;102633.28;5028343;28;20047;-81
2022/04/17 01:27:26;;;;;;;14.35;8.07;;;;;;;4.60;59.99;102628.72;5023045;28;20037;-82
2022/04/17 01:29:54;;;;;;;10.57;7.53;;;;;;;4.62;59.85;102623.59;5046029;28;20348;-82
2022/04/17 01:32:22;;;;;;;9.77;7.13;;;;;;;4.63;59.55;102627.97;5028891;28;20052;-83
2022/04/17 01:34:49;;;;;;;12.82;8.00;;;;;;;4.60;60.44;102627.81;5020425;28;20053;-79
2022/04/17 01:37:17;;;;;;;9.98;7.75;;;;;;;4.57;60.15;102622.47;5025769;28;20088;-82
2022/04/17 01:39:44;;;;;;;11.38;7.85;;;;;;;4.56;60.42;102625.88;5021625;28;20135;-82
2022/04/17 01:42:12;;;;;;;12.52;8.35;;;;;;;4.52;60.23;102619.66;5044297;28;20047;-81
2022/04/17 01:44:40;;;;;;;10.45;6.63;;;;;;;4.49;60.27;102606.56;5031634;28;20414;-80
2022/04/17 01:47:06;;;;;;;15.98;8.20;;;;;;;4.49;61.02;102601.38;5028133;28;20053;-84
2022/04/17 01:49:33;;;;;;;12.93;7.00;;;;;;;4.51;61.07;102598.84;5024362;28;20045;-80
2022/04/17 01:52:00;;;;;;;12.05;7.80;;;;;;;4.49;60.73;102603.97;5046941;28;20056;-82
2022/04/17 01:54:28;;;;;;;13.38;7.35;;;;;;;4.45;60.99;102602.91;5025908;28;20049;-80
2022/04/17 01:56:55;;;;;;;12.60;7.70;;;;;;;4.43;61.62;102595.88;5029058;28;20083;-83
2022/04/17 01:59:24;;;;;;;8.98;7.55;;;;;;;4.42;61.79;102591.50;5030539;28;20040;-81
2022/04/17 02:01:50;;;;;;;13.60;8.15;;;;;;;4.40;62.30;102596.63;5024565;28;20064;-83
2022/04/17 02:04:18;;;;;;;14.05;8.32;;;;;;;4.35;62.44;102590.31;5039383;28;20060;-82
2022/04/17 02:06:45;;;;;;;16.25;8.32;;;;;;;4.30;62.62;102591.81;5025978;28;20465;-83
2022/04/17 02:09:15;;;;;;;12.43;8.85;;;;;;;4.27;62.91;102591.66;5043762;28;20090;-82
2022/04/17 02:11:43;;;;;;;12.40;7.40;;;;;;;4.23;62.84;102581.97;5028359;28;20056;-81
2022/04/17 02:14:11;;;;;;;14.77;8.18;;;;;;;4.19;63.16;102577.47;5039337;28;20059;-82
2022/04/17 02:16:37;;;;;;;13.20;8.00;;;;;;;4.19;63.36;102580.06;5033182;28;20052;-81
2022/04/17 02:19:04;;;;;;;12.93;7.85;;;;;;;4.12;63.05;102578.88;5042880;28;20049;-81
2022/04/17 02:21:31;;;;;;;14.15;8.05;;;;;;;4.05;63.57;102577.66;5046693;28;20049;-80
2022/04/17 02:23:59;;;;;;;11.77;7.65;;;;;;;4.01;64.57;102577.44;5024744;28;20084;-82
2022/04/17 02:26:25;;;;;;;12.07;8.38;;;;;;;3.98;64.68;102568.69;5026104;28;20052;-83
2022/04/17 02:28:56;;;;;;;12.10;8.52;;;;;;;3.94;65.04;102571.09;5027303;28;20684;-81
2022/04/17 02:31:22;;;;;;;12.88;8.50;;;;;;;3.91;64.78;102573.50;5044865;28;20419;-81
2022/04/17 02:33:49;;;;;;;15.77;8.70;;;;;;;3.89;64.88;102568.25;5024834;28;20368;-81
2022/04/17 02:36:15;;;;;;;12.48;8.38;;;;;;;3.84;64.68;102571.44;5027344;28;20079;-82
2022/04/17 02:38:42;;;;;;;11.43;7.25;;;;;;;3.81;64.92;102578.22;5028869;28;20041;-82
2022/04/17 02:41:08;;;;;;;9.30;6.57;;;;;;;3.80;64.45;102572.97;5049083;28;20407;-81
2022/04/17 02:43:34;;;;;;;9.27;7.25;;;;;;;3.78;64.46;102572.91;5032706;28;20490;-82
2022/04/17 02:46:01;;;;;;;13.23;7.90;;;;;;;3.76;64.36;102565.88;5034021;28;20426;-82
2022/04/17 02:48:27;;;;;;;12.32;6.97;;;;;;;3.75;64.52;102558.91;5048851;28;20100;-82
2022/04/17 02:50:55;;;;;;;8.50;6.97;;;;;;;3.74;64.63;102560.63;5033618;28;20578;-82
2022/04/17 02:53:24;;;;;;;8.55;6.47;;;;;;;3.75;64.44;102559.78;5047790;28;20045;-82
2022/04/17 02:55:51;;;;;;;11.52;8.30;;;;;;;3.75;64.46;102562.38;5045888;28;20049;-81
2022/04/17 02:58:17;;;;;;;11.20;7.30;;;;;;;3.78;64.14;102562.56;5049360;28;20099;-82
2022/04/17 03:06:14;;;;;;;15.02;8.40;;;;;;;3.70;64.38;102563.84;5034569;28;20040;-81
2022/04/17 03:08:42;;;;;;;7.70;6.50;;;;;;;3.68;64.04;102562.91;5031127;28;20078;-84
2022/04/17 03:11:10;;;;;;;7.82;6.13;;;;;;;3.64;63.90;102564.44;5047448;28;20067;-85
2022/04/17 03:13:36;;;;;;;11.50;6.65;;;;;;;3.63;64.26;102565.25;5049351;28;20139;-82
2022/04/17 03:16:03;;;;;;;8.05;6.47;;;;;;;3.61;64.07;102563.38;5031839;28;20053;-82
2022/04/17 03:18:30;;;;;;;9.15;5.90;;;;;;;3.59;64.33;102562.44;5047091;28;20055;-83
2022/04/17 03:20:58;;;;;;;7.72;6.25;;;;;;;3.57;64.26;102557.19;5047623;28;20238;-82
2022/04/17 03:23:24;;;;;;;11.52;7.20;;;;;;;3.57;64.42;102548.50;5048562;28;20045;-83
2022/04/17 03:25:51;;;;;;;10.55;6.70;;;;;;;3.54;64.13;102536.28;5029590;28;20055;-81
2022/04/17 03:28:17;;;;;;;9.73;6.50;;;;;;;3.50;64.32;102541.25;5050345;28;20060;-81
2022/04/17 03:30:44;;;;;;;8.55;5.72;;;;;;;3.48;64.64;102534.31;5050041;28;20056;-82
2022/04/17 03:33:12;;;;;;;11.48;6.47;;;;;;;3.50;64.68;102533.50;5032639;28;20048;-81
2022/04/17 03:35:39;;;;;;;7.88;5.35;;;;;;;3.47;64.45;102531.63;5029691;28;20338;-81
2022/04/17 03:38:05;;;;;;;10.98;6.18;;;;;;;3.44;64.67;102528.88;5030835;28;20045;-82
2022/04/17 03:40:32;;;;;;;8.77;6.22;;;;;;;3.41;64.94;102520.97;5032048;28;20055;-81
2022/04/17 03:42:58;;;;;;;9.15;5.75;;;;;;;3.36;65.28;102528.47;5047163;28;20097;-83
2022/04/17 03:45:25;;;;;;;12.80;7.03;;;;;;;3.34;65.54;102529.22;5045010;28;20049;-82
2022/04/17 03:47:52;;;;;;;9.57;7.03;;;;;;;3.31;66.07;102528.25;5030388;28;20053;-82
2022/04/17 03:50:18;;;;;;;12.90;7.25;;;;;;;3.31;66.21;102527.34;5047104;28;20047;-82
2022/04/17 03:52:48;;;;;;;8.35;6.22;;;;;;;3.29;66.99;102521.22;5027138;28;20128;-84
2022/04/17 03:55:16;;;;;;;8.80;5.50;;;;;;;3.29;67.08;102523.81;5041706;28;20048;-84
2022/04/17 03:57:43;;;;;;;8.60;7.20;;;;;;;3.25;67.25;102525.34;5046862;28;20049;-84
2022/04/17 04:00:12;;;;;;;7.47;6.15;;;;;;;3.19;67.37;102512.09;5032808;28;20044;-83
2022/04/17 04:02:40;;;;;;;8.50;6.75;;;;;;;3.18;68.17;102512.03;5047675;28;20057;-84
2022/04/17 04:05:09;;;;;;;10.18;6.60;;;;;;;3.14;67.93;102511.88;5043782;28;20048;-84
2022/04/17 04:07:39;;;;;;;10.10;6.65;;;;;;;3.11;67.84;102498.75;5022486;28;20495;-82
2022/04/17 04:10:08;;;;;;;8.50;5.63;;;;;;;3.08;68.05;102498.59;5045538;28;20085;-84
2022/04/17 04:12:36;;;;;;;8.50;6.13;;;;;;;3.09;68.00;102496.91;5047046;28;20060;-83
2022/04/17 04:15:04;;;;;;;10.15;5.85;;;;;;;3.04;67.60;102491.50;5047615;28;20056;-83
2022/04/17 04:17:31;;;;;;;10.25;7.05;;;;;;;3.03;68.18;102494.03;5030359;28;20801;-83
2022/04/17 04:19:57;;;;;;;10.45;7.60;;;;;;;3.04;68.28;102491.50;5025918;28;20049;-84
2022/04/17 04:22:24;;;;;;;13.40;6.80;;;;;;;3.00;68.74;102491.25;5045294;28;20386;-81
2022/04/17 04:24:50;;;;;;;14.65;6.07;;;;;;;2.98;68.77;102488.59;5029283;28;20056;-84
2022/04/17 04:30:12;;;;;;;8.45;6.13;;;;;;;2.92;69.41;102488.25;4997667;28;20048;-82
2022/04/17 04:32:39;;;;;;;8.98;6.75;;;;;;;2.90;68.91;102488.19;5038639;28;20059;-82
2022/04/17 04:35:06;;;;;;;8.02;5.40;;;;;;;2.90;69.64;102485.59;5023046;28;20040;-81
2022/04/17 04:37:33;;;;;;;8.32;6.75;;;;;;;2.88;68.97;102496.69;5046672;28;20391;-82
2022/04/17 04:39:59;;;;;;;10.48;7.07;;;;;;;2.86;68.75;102504.38;5033143;28;20128;-82
2022/04/17 04:42:26;;;;;;;9.38;5.85;;;;;;;2.85;68.97;102506.88;5034559;28;20049;-81
2022/04/17 04:46:06;;;;;;;7.57;6.22;;;;;;;2.85;68.54;102499.13;5031718;28;20045;-82
2022/04/17 04:47:45;;;;;;;11.13;6.32;;;;;;;2.88;68.72;102504.44;5036935;28;20044;-83
2022/04/17 04:50:12;;;;;;;12.20;6.07;;;;;;;2.90;68.62;102502.84;5047303;28;20039;-80
2022/04/17 04:52:39;;;;;;;7.05;5.90;;;;;;;2.91;68.39;102496.88;5045198;28;20072;-81
2022/04/17 04:55:06;;;;;;;8.93;5.75;;;;;;;2.93;68.07;102505.56;5022956;28;20511;-84
2022/04/17 04:57:36;;;;;;;9.93;6.95;;;;;;;2.92;68.09;102503.78;5046566;28;20052;-81
2022/04/17 05:00:05;;;;;;;14.13;5.85;;;;;;;2.93;67.73;102500.41;5045426;28;20052;-82
2022/04/17 05:02:32;;;;;;;13.50;7.40;;;;;;;2.94;67.42;102494.41;5028576;28;20060;-81
2022/04/17 05:04:59;;;;;;;7.97;5.93;;;;;;;2.96;67.38;102498.00;5045030;28;20045;-81
2022/04/17 05:07:26;;;;;;;9.45;5.88;;;;;;;2.97;67.48;102498.06;5028336;28;20044;-82
2022/04/17 05:09:53;;;;;;;8.88;6.47;;;;;;;3.01;67.24;102504.25;5048981;28;22328;-85
2022/04/17 05:12:19;;;;;;;12.13;7.22;;;;;;;3.05;67.09;102506.22;5046557;28;20056;-83
2022/04/17 05:14:46;;;;;;;9.75;5.53;;;;;;;3.07;67.05;102498.53;5029545;28;20052;-81
2022/04/17 05:17:12;;;;;;;9.50;6.63;;;;;;;3.09;66.80;102497.81;5031176;28;20496;-84
2022/04/17 05:19:39;;;;;;;9.23;6.03;;;;;;;3.13;66.54;102504.03;5046347;28;20044;-82
2022/04/17 05:22:10;;;;;;;11.77;5.88;;;;;;;3.18;66.23;102510.34;5032401;28;20056;-82
2022/04/17 05:24:40;;;;;;;9.02;6.20;;;;;;;3.21;66.05;102510.50;5047356;28;20049;-84
2022/04/17 05:27:07;;;;;;;8.60;5.47;;;;;;;3.24;66.39;102509.75;5046873;28;20422;-82
2022/04/17 05:29:36;;;;;;;9.50;5.65;;;;;;;3.25;66.31;102507.25;5033745;28;20045;-84
2022/04/17 05:32:04;;;;;;;15.65;7.18;;;;;;;3.26;66.16;102511.63;5045397;28;20037;-85
2022/04/17 05:34:30;;;;;;;11.35;6.55;;;;;;;3.28;65.88;102517.72;5059951;28;20059;-84
2022/04/17 05:36:58;;;;;;;13.68;6.28;;;;;;;3.28;66.24;102509.09;5046356;28;20041;-84
2022/04/17 05:39:27;;;;;;;8.85;6.13;;;;;;;3.29;65.73;102511.75;5047376;28;20120;-83
2022/04/17 05:41:54;;;;;;;8.40;6.03;;;;;;;3.30;65.65;102515.25;5047914;28;20040;-83
2022/04/17 05:44:21;;;;;;;8.45;6.03;;;;;;;3.37;65.49;102519.03;5063062;28;20091;-84
2022/04/17 05:46:48;;;;;;;10.63;5.97;;;;;;;3.40;65.28;102512.31;5050105;28;20061;-84
2022/04/17 05:49:15;;;;;;;7.40;5.75;;;;;;;3.44;65.36;102513.34;5066852;28;20041;-83
2022/04/17 05:51:42;;;;;;;9.38;6.22;;;;;;;3.48;65.44;102517.84;5065129;28;20041;-84
2022/04/17 05:54:12;;;;;;;12.35;6.05;;;;;;;3.57;65.14;102525.22;5063374;28;20041;-84
2022/04/17 05:56:39;;;;;;;10.88;6.60;;;;;;;3.64;64.74;102524.72;5049629;28;20044;-84
2022/04/17 05:59:07;;;;;;;6.85;6.03;;;;;;;3.72;64.01;102523.38;5050891;28;20045;-84
2022/04/17 06:01:34;;;;;;;9.55;5.78;;;;;;;3.79;63.96;102521.97;5066951;28;20044;-83
2022/04/17 06:04:01;;;;;;;8.27;6.05;;;;;;;3.85;63.62;102524.88;5047959;28;20048;-82
2022/04/17 06:06:28;;;;;;;11.98;5.28;;;;;;;3.89;63.59;102520.75;5047002;28;20048;-83
2022/04/17 06:08:55;;;;;;;11.07;5.55;;;;;;;3.96;63.59;102526.28;5047701;28;20051;-83
2022/04/17 06:11:22;;;;;;;10.25;6.00;;;;;;;4.05;63.01;102527.53;5044769;28;20368;-82
2022/04/17 06:13:48;;;;;;;12.10;6.10;;;;;;;4.13;62.72;102528.78;5050251;28;20036;-83
2022/04/17 06:16:16;;;;;;;13.73;6.30;;;;;;;4.20;62.17;102530.88;5042858;28;20044;-82
2022/04/17 06:18:42;;;;;;;11.05;5.78;;;;;;;4.26;62.29;102522.47;5054170;28;20049;-83
2022/04/17 06:21:11;;;;;;;9.95;7.45;;;;;;;4.30;62.14;102517.53;5049652;28;20109;-83
2022/04/17 06:23:38;;;;;;;8.88;5.97;;;;;;;4.38;61.98;102522.16;5051504;28;20076;-83
2022/04/17 06:26:06;;;;;;;9.63;4.78;;;;;;;4.43;61.21;102516.41;5052146;28;20048;-85
2022/04/17 06:28:33;;;;;;;8.13;5.28;;;;;;;4.49;60.84;102517.50;5051101;28;20075;-83
2022/04/17 06:31:00;;;;;;;10.68;5.75;;;;;;;4.54;60.98;102511.69;5052891;28;20046;-82
2022/04/17 06:33:30;;;;;;;6.97;6.05;;;;;;;4.61;60.51;102513.75;5050203;28;20048;-84
2022/04/17 06:35:57;;;;;;;9.82;6.00;;;;;;;4.73;60.02;102517.72;5048725;28;20048;-83
2022/04/17 06:38:24;;;;;;;11.75;6.60;;;;;;;4.88;59.75;102509.75;5065602;28;20051;-82
2022/04/17 06:41:01;;;;;;;7.13;5.70;;;;;;;5.06;59.05;102507.03;5066907;28;20041;-84
2022/04/17 06:43:31;;;;;;;8.60;5.35;;;;;;;5.32;57.86;102512.47;5068057;28;20060;-84
2022/04/17 06:46:04;;;;;;;12.40;7.10;;;;;;;5.64;57.62;102513.84;5056378;28;20051;-84
2022/04/17 06:48:31;;;;;;;6.85;5.45;;;;;;;6.04;56.57;102514.63;5051354;28;20044;-83
2022/04/17 06:50:58;;;;;;;8.90;5.40;;;;;;;6.45;54.74;102512.72;5047453;28;20045;-83
2022/04/17 06:53:25;;;;;;;9.10;4.93;;;;;;;6.85;54.09;102514.19;5067674;28;20048;-82
2022/04/17 06:55:53;;;;;;;7.90;4.20;;;;;;;7.24;52.83;102516.44;5048867;28;20048;-82
2022/04/17 06:58:21;;;;;;;10.05;5.63;;;;;;;7.64;51.87;102505.59;5050125;28;20137;-84
2022/04/17 07:00:51;;;;;;;6.65;4.68;;;;;;;8.05;51.05;102506.06;5052467;28;20020;-84
2022/04/17 07:03:18;;;;;;;7.97;4.82;;;;;;;8.45;51.03;102499.47;5046917;28;20065;-83
2022/04/17 07:05:45;;;;;;;7.00;3.80;;;;;;;8.86;49.93;102488.44;5048527;28;20048;-83
2022/04/17 07:08:12;;;;;;;6.38;4.47;;;;;;;9.30;48.80;102498.34;5070270;28;20045;-82
2022/04/17 07:10:43;;;;;;;12.65;4.35;;;;;;;9.68;46.58;102493.19;5046438;28;20320;-82
2022/04/17 07:13:14;;;;;;;5.35;4.10;;;;;;;9.96;44.92;102504.28;5050725;28;20044;-83
2022/04/17 07:15:44;;;;;;;6.13;4.32;;;;;;;10.30;44.45;102495.50;5052192;28;20063;-85
2022/04/17 07:18:11;;;;;;;7.93;4.20;;;;;;;10.56;42.64;102508.28;5054581;28;20057;-83
2022/04/17 07:20:38;;;;;;;6.80;3.83;;;;;;;10.76;43.15;102500.84;5067439;28;20044;-84
2022/04/17 07:23:06;;;;;;;5.57;4.72;;;;;;;10.79;40.82;102500.00;5047613;28;20044;-84
2022/04/17 07:25:33;;;;;;;4.20;3.65;;;;;;;10.86;41.03;102497.53;5041076;28;20074;-84
2022/04/17 07:28:00;;;;;;;7.50;3.60;;;;;;;10.90;40.78;102494.13;5051953;28;20068;-83
2022/04/17 07:30:33;;;;;;;4.50;3.88;;;;;;;10.74;40.42;102492.94;5051053;28;20032;-83
2022/04/17 07:33:02;;;;;;;4.35;3.95;;;;;;;10.93;41.02;102495.91;5052898;28;20055;-85
2022/04/17 07:35:31;;;;;;;5.30;4.13;;;;;;;10.98;39.89;102493.41;5083871;28;20040;-81
2022/04/17 07:38:06;;;;;;;3.67;3.38;;;;;;;11.06;39.96;102489.19;5034248;28;20131;-83
2022/04/17 07:40:35;;;;;;;3.97;3.63;;;;;;;11.42;39.11;102488.94;5052625;28;20048;-83
2022/04/17 07:43:05;;;;;;;4.97;2.83;;;;;;;11.95;38.06;102479.31;5052180;28;20052;-85
2022/04/17 07:45:33;;;;;;;7.97;3.67;;;;;;;12.33;37.55;102478.97;5039391;28;20049;-81
2022/04/17 07:48:00;;;;;;;4.05;3.60;;;;;;;12.76;37.28;102475.09;5045479;28;20166;-82
2022/04/17 07:50:31;;;;;;;4.20;3.80;;;;;;;13.35;36.30;102481.81;5046299;28;20066;-85
2022/04/17 07:52:57;;;;;;;6.07;3.85;;;;;;;13.85;35.07;102483.13;5057663;28;20384;-83
2022/04/17 07:55:24;;;;;;;3.40;3.15;;;;;;;14.29;35.10;102473.69;5059658;28;20065;-83
2022/04/17 07:58:01;;;;;;;4.28;3.88;;;;;;;14.60;34.33;102472.09;5061414;28;20189;-81
2022/04/17 08:00:32;;;;;;;3.45;3.20;;;;;;;14.92;33.62;102478.34;5043799;28;20044;-81
2022/04/17 08:03:09;;;;;;;4.35;3.85;;;;;;;15.10;32.30;102477.53;5057602;28;20138;-85
2022/04/17 08:05:38;;;;;;;4.78;3.40;;;;;;;15.04;33.22;102471.34;5056784;28;20052;-84
2022/04/17 08:08:06;;;;;;;4.03;3.63;;;;;;;15.60;32.26;102471.34;5058666;28;20039;-86
2022/04/17 08:10:34;;;;;;;6.95;3.80;;;;;;;16.09;31.24;102470.44;5056718;28;20056;-82
2022/04/17 08:13:01;;;;;;;3.25;2.95;;;;;;;16.32;30.41;102462.44;5037242;28;20060;-82
2022/04/17 08:15:27;;;;;;;6.05;4.53;;;;;;;16.38;29.78;102466.78;5031936;28;20052;-84
2022/04/17 08:17:54;;;;;;;4.63;3.55;;;;;;;16.55;29.71;102456.16;5051317;28;20126;-81
2022/04/17 08:20:21;;;;;;;4.20;3.60;;;;;;;16.85;28.96;102462.16;5052335;28;20044;-84
2022/04/17 08:22:48;;;;;;;3.60;3.30;;;;;;;16.89;28.92;102452.44;5037607;28;20044;-83
2022/04/17 08:25:15;;;;;;;4.53;3.72;;;;;;;17.24;28.79;102453.97;5053629;28;20091;-82
2022/04/17 08:27:50;;;;;;;4.45;3.55;;;;;;;17.05;28.76;102450.59;5037566;28;20120;-85
2022/04/17 08:30:26;;;;;;;6.40;4.03;;;;;;;17.62;28.43;102450.97;5035945;28;20049;-84
2022/04/17 08:32:53;;;;;;;5.40;4.90;;;;;;;18.18;27.50;102450.41;5047075;28;20033;-84
2022/04/17 08:35:20;;;;;;;6.03;4.80;;;;;;;18.63;26.83;102439.22;5033943;28;20044;-84
2022/04/17 08:37:48;;;;;;;6.63;4.47;;;;;;;18.71;25.93;102442.66;5035033;28;20052;-83
2022/04/17 08:40:15;;;;;;;4.85;3.90;;;;;;;18.39;24.56;102443.09;5067820;28;20047;-82
2022/04/17 08:42:42;;;;;;;5.95;4.22;;;;;;;18.35;25.35;102440.50;5051651;28;20052;-82
2022/04/17 08:45:10;;;;;;;4.35;3.90;;;;;;;18.77;25.00;102441.69;5051929;28;20487;-84
2022/04/17 08:47:41;;;;;;;6.03;4.50;;;;;;;19.42;24.53;102438.03;5036511;28;20063;-84
2022/04/17 08:50:14;;;;;;;5.85;3.88;;;;;;;19.36;23.43;102446.97;5035529;28;20052;-83
2022/04/17 08:52:45;;;;;;;5.90;4.07;;;;;;;19.09;23.17;102438.56;5034227;28;20050;-85
2022/04/17 08:55:12;;;;;;;5.82;3.60;;;;;;;19.03;23.52;102443.97;5034566;28;20101;-82
2022/04/17 08:57:39;;;;;;;5.30;3.45;;;;;;;19.78;22.90;102432.94;5035853;28;20044;-83
2022/04/17 09:00:10;;;;;;;4.63;3.38;;;;;;;20.10;22.30;102434.09;5050061;28;20064;-83
2022/04/17 09:02:37;;;;;;;3.50;2.83;;;;;;;20.62;21.31;102425.00;5034542;28;20282;-83
2022/04/17 09:05:06;;;;;;;3.38;3.08;;;;;;;20.89;20.33;102411.13;5034403;28;20068;-85
2022/04/17 09:07:40;;;;;;;2.72;2.45;;;;;;;21.36;19.51;102406.38;5033930;28;20052;-82
2022/04/17 09:10:08;;;;;;;1.90;1.70;;;;;;;21.28;18.79;102411.03;5032828;28;20422;-82
2022/04/17 09:12:35;;;;;;;2.85;1.73;;;;;;;21.38;18.98;102404.53;5050700;28;20055;-83
2022/04/17 09:15:01;;;;;;;1.30;1.20;;;;;;;21.73;18.49;102402.75;5035557;28;20138;-83
2022/04/17 09:17:33;;;;;;;1.55;1.45;;;;;;;21.76;17.13;102396.44;5036797;28;20052;-83
2022/04/17 09:20:01;;;;;;;1.80;1.70;;;;;;;21.84;17.49;102405.09;5049696;28;20048;-83
2022/04/17 09:22:50;;;;;;;2.75;1.63;;;;;;;21.77;17.41;102388.41;5051609;28;20032;-83
2022/04/17 09:25:18;;;;;;;1.83;1.70;;;;;;;22.30;17.27;102390.38;5034017;28;20109;-83
2022/04/17 09:27:57;;;;;;;2.30;2.15;;;;;;;22.59;16.97;102391.31;5035687;28;20719;-83
2022/04/17 09:30:39;;;;;;;1.98;1.80;;;;;;;22.51;17.07;102382.66;5053757;28;20129;-84
2022/04/17 09:33:12;;;;;;;1.83;1.73;;;;;;;21.59;16.44;102388.91;5036313;28;20052;-84
2022/04/17 09:35:39;;;;;;;2.03;1.90;;;;;;;21.40;17.10;102396.50;5051268;28;20567;-84
2022/04/17 09:38:08;;;;;;;3.28;2.08;;;;;;;21.70;17.13;102386.81;5051623;28;20051;-85
2022/04/17 09:40:37;;;;;;;2.00;1.90;;;;;;;21.76;17.02;102383.13;5035959;28;20056;-83
2022/04/17 09:43:15;;;;;;;3.60;1.80;;;;;;;21.55;16.57;102384.56;5050749;28;20051;-81
2022/04/17 09:46:14;;;;;;;2.35;2.00;;;;;;;21.89;16.67;102378.28;5035976;28;20056;-84
2022/04/17 09:48:45;;;;;;;2.15;1.85;;;;;;;21.36;17.42;102376.19;5032991;28;20391;-81
2022/04/17 09:51:22;;;;;;;4.25;2.75;;;;;;;22.01;17.17;102369.09;5030911;28;20080;-83
2022/04/17 09:54:08;;;;;;;3.60;1.95;;;;;;;22.03;17.59;102361.88;5048018;28;20391;-83
2022/04/17 09:56:43;;;;;;;3.10;2.42;;;;;;;23.33;16.66;102353.25;5048293;28;20048;-83
2022/04/17 09:59:24;;;;;;;2.55;2.20;;;;;;;23.55;16.05;102357.84;5050124;28;20079;-83
2022/04/17 10:01:54;;;;;;;2.40;2.30;;;;;;;23.37;17.01;102349.53;5050164;28;20392;-82
2022/04/17 10:04:24;;;;;;;2.65;2.15;;;;;;;23.74;16.99;102347.31;5047908;28;20456;-84
2022/04/17 10:06:53;;;;;;;3.42;1.80;;;;;;;24.51;15.49;102338.09;5033580;28;20053;-82
2022/04/17 10:09:21;;;;;;;1.23;1.13;;;;;;;25.00;14.50;102338.75;5033814;28;20048;-85
2022/04/17 10:11:51;;;;;;;2.67;0.98;;;;;;;24.47;13.85;102334.72;5048589;28;20122;-84
2022/04/17 10:14:17;;;;;;;1.17;1.08;;;;;;;24.62;14.01;102333.19;5033585;28;20054;-82
2022/04/17 10:16:47;;;;;;;3.15;1.13;;;;;;;24.97;13.71;102330.84;5037453;28;20410;-83
2022/04/17 10:19:19;;;;;;;2.08;0.95;;;;;;;25.41;13.26;102320.00;5053828;28;20070;-83
2022/04/17 10:21:47;;;;;;;0.90;0.90;;;;;;;25.66;12.13;102328.75;5055004;28;20040;-83
2022/04/17 10:24:17;;;;;;;0.95;0.85;;;;;;;25.48;13.01;102317.06;5034182;28;20045;-85
2022/04/17 10:26:55;;;;;;;1.10;1.00;;;;;;;25.62;12.42;102309.25;5033718;28;20052;-85
2022/04/17 10:29:43;;;;;;;2.42;1.45;;;;;;;25.79;13.24;102310.25;5052428;28;20402;-82
2022/04/17 10:32:42;;;;;;;2.78;1.95;;;;;;;26.14;13.63;102291.63;5032651;28;20051;-86
2022/04/17 10:35:52;;;;;;;4.13;1.55;;;;;;;27.52;13.14;102280.97;5032814;28;20053;-85
2022/04/17 10:38:24;;;;;;;2.45;2.20;;;;;;;27.96;13.02;102281.25;5048801;28;20075;-84
2022/04/17 10:41:00;;;;;;;2.50;2.30;;;;;;;27.93;13.81;102289.50;5050648;28;20300;-83
2022/04/17 10:43:42;;;;;;;2.58;2.17;;;;;;;28.29;13.67;102281.16;5036302;28;20060;-85
2022/04/17 10:46:21;;;;;;;2.00;1.90;;;;;;;27.46;13.50;102277.75;5049912;28;20074;-83
2022/04/17 10:48:52;;;;;;;2.38;1.60;;;;;;;27.85;13.55;102279.16;5053519;28;20720;-83
2022/04/17 10:51:28;;;;;;;1.50;1.40;;;;;;;27.68;12.32;102267.53;5044126;28;20063;-83
2022/04/17 10:54:11;;;;;;;1.10;1.00;;;;;;;27.03;12.21;102271.00;5032302;28;20052;-82
2022/04/17 10:56:39;;;;;;;;;;;;;;;26.44;12.38;102266.88;5026180;28;20373;-83
2022/04/17 10:59:18;;;;;;;2.83;1.20;;;;;;;27.14;12.52;102265.03;5049526;28;20019;-84
2022/04/17 11:01:44;;;;;;;1.15;1.10;;;;;;;28.00;12.41;102256.75;5040957;28;20048;-83
2022/04/17 11:04:41;;;;;;;1.63;1.52;;;;;;;28.22;12.47;102264.50;5050677;28;20522;-84
2022/04/17 11:07:09;;;;;;;1.63;1.52;;;;;;;27.90;13.00;102255.56;5034193;28;20467;-83
2022/04/17 11:09:44;;;;;;;1.80;1.70;;;;;;;28.00;13.24;102242.41;5050076;28;20049;-84
2022/04/17 11:12:11;;;;;;;1.30;1.20;;;;;;;28.05;12.94;102253.81;5036736;28;20040;-83
2022/04/17 11:14:39;;;;;;;1.95;1.40;;;;;;;28.00;12.80;102251.38;5055235;28;20315;-82
2022/04/17 11:17:08;;;;;;;5.07;3.42;;;;;;;27.45;13.37;102246.44;5040816;28;20055;-83
2022/04/17 11:19:40;;;;;;;1.98;1.60;;;;;;;27.94;13.16;102235.59;5057552;28;20139;-83
2022/04/17 11:22:09;;;;;;;1.45;1.30;;;;;;;28.57;12.79;102235.56;5041100;28;20048;-84
2022/04/17 11:24:58;;;;;;;1.85;1.40;;;;;;;28.65;12.08;102230.56;5038838;28;20052;-84
2022/04/17 11:27:46;;;;;;;1.27;1.27;;;;;;;28.32;12.40;102235.19;5075089;28;20041;-85
2022/04/17 11:30:15;;;;;;;1.25;1.15;;;;;;;29.08;12.50;102219.84;5054388;28;20037;-84
2022/04/17 11:32:41;;;;;;;2.60;1.00;;;;;;;28.89;12.36;102220.13;5057320;28;20053;-84
2022/04/17 11:35:14;;;;;;;1.13;1.13;;;;;;;29.36;11.87;102219.00;5074239;28;20048;-83
2022/04/17 11:37:41;;;;;;;1.67;1.30;;;;;;;28.93;12.15;102220.78;5050740;28;20083;-83
2022/04/17 11:40:18;;;;;;;1.27;1.27;;;;;;;28.99;11.87;102220.41;5039830;28;20051;-84
2022/04/17 11:42:50;;;;;;;1.80;1.70;;;;;;;28.93;11.97;102210.91;5053025;28;20047;-83
2022/04/17 11:45:21;;;;;;;1.70;1.10;;;;;;;28.72;12.40;102202.28;5054291;28;20064;-83
2022/04/17 11:47:49;;;;;;;2.05;1.45;;;;;;;28.82;12.04;102210.69;5055855;28;20052;-83